createdAt,value
2023-07-08T00:00:50.099Z,16.42
2023-07-08T00:03:24.525Z,16.45
2023-07-08T00:05:57.092Z,17.08
2023-07-08T00:08:25.223Z,17.92
2023-07-08T00:10:53.274Z,17.80
2023-07-08T00:13:21.321Z,17.15
2023-07-08T00:15:49.922Z,17.80
2023-07-08T00:18:19.092Z,19.10
2023-07-08T00:20:50.037Z,17.80
2023-07-08T00:23:23.289Z,19.75
2023-07-08T00:25:51.685Z,19.45
2023-07-08T00:28:22.559Z,17.80
2023-07-08T00:30:50.584Z,20.10
2023-07-08T00:33:18.568Z,17.05
2023-07-08T00:35:47.327Z,17.52
2023-07-08T00:38:16.342Z,18.02
2023-07-08T00:40:53.495Z,17.77
2023-07-08T00:43:25.719Z,19.00
2023-07-08T00:46:12.472Z,17.33
2023-07-08T00:48:41.219Z,16.77
2023-07-08T00:51:14.169Z,21.08
2023-07-08T00:53:42.471Z,19.23
2023-07-08T00:56:31.508Z,19.35
2023-07-08T00:59:10.066Z,20.17
2023-07-08T01:01:43.770Z,18.90
2023-07-08T01:04:21.373Z,18.40
2023-07-08T01:06:58.895Z,18.88
2023-07-08T01:09:34.284Z,19.23
2023-07-08T01:12:06.248Z,21.20
2023-07-08T01:14:37.318Z,18.30
2023-07-08T01:17:06.220Z,23.90
2023-07-08T01:19:34.477Z,18.33
2023-07-08T01:22:07.429Z,19.15
2023-07-08T01:24:39.744Z,19.08
2023-07-08T01:27:13.011Z,17.85
2023-07-08T01:29:41.077Z,17.35
2023-07-08T01:32:15.353Z,17.10
2023-07-08T01:34:43.488Z,19.25
2023-07-08T01:37:13.601Z,18.70
2023-07-08T01:39:41.596Z,18.17
2023-07-08T01:42:09.626Z,17.17
2023-07-08T01:44:38.208Z,18.75
2023-07-08T01:47:20.512Z,21.98
2023-07-08T01:49:50.062Z,17.15
2023-07-08T01:52:19.417Z,16.58
2023-07-08T01:54:56.542Z,18.55
2023-07-08T01:57:24.738Z,20.80
2023-07-08T01:59:52.653Z,17.35
2023-07-08T02:02:20.719Z,19.25
2023-07-08T02:04:48.766Z,15.73
2023-07-08T02:07:17.155Z,16.65
2023-07-08T02:09:45.191Z,16.45
2023-07-08T02:12:13.623Z,17.13
2023-07-08T02:19:36.776Z,19.10
2023-07-08T02:22:05.870Z,17.13
2023-07-08T02:24:33.944Z,16.05
2023-07-08T02:27:02.160Z,16.50
2023-07-08T02:29:30.564Z,17.10
2023-07-08T02:31:58.684Z,16.77
2023-07-08T02:34:26.724Z,17.63
2023-07-08T02:36:54.732Z,16.60
2023-07-08T02:39:23.331Z,18.23
2023-07-08T02:41:51.482Z,16.40
2023-07-08T02:44:19.502Z,15.38
2023-07-08T02:46:47.510Z,15.88
2023-07-08T02:52:00.040Z,15.63
2023-07-08T02:54:28.239Z,15.38
2023-07-08T02:56:56.281Z,15.88
2023-07-08T02:59:24.397Z,17.30
2023-07-08T03:01:52.485Z,15.77
2023-07-08T03:04:23.338Z,14.55
2023-07-08T03:06:52.784Z,14.73
2023-07-08T03:09:20.896Z,16.88
2023-07-08T03:11:48.920Z,14.43
2023-07-08T03:14:17.088Z,14.40
2023-07-08T03:16:45.322Z,14.00
2023-07-08T03:19:16.557Z,15.93
2023-07-08T03:21:44.753Z,16.30
2023-07-08T03:24:13.436Z,15.50
2023-07-08T03:26:48.352Z,14.25
2023-07-08T03:29:19.984Z,15.77
2023-07-08T03:31:49.178Z,16.83
2023-07-08T03:34:18.805Z,14.68
2023-07-08T03:36:51.733Z,12.60
2023-07-08T03:39:25.727Z,14.23
2023-07-08T03:41:54.617Z,12.98
2023-07-08T03:44:22.534Z,14.52
2023-07-08T03:46:51.345Z,13.45
2023-07-08T03:49:25.013Z,14.95
2023-07-08T03:51:55.207Z,14.85
2023-07-08T03:54:25.317Z,14.23
2023-07-08T03:56:55.961Z,13.57
2023-07-08T03:59:26.389Z,12.85
2023-07-08T04:01:56.821Z,17.55
2023-07-08T04:04:26.623Z,17.15
2023-07-08T04:06:56.189Z,15.50
2023-07-08T04:09:24.447Z,14.15
2023-07-08T04:11:52.409Z,13.05
2023-07-08T04:14:20.547Z,11.77
2023-07-08T04:16:55.633Z,11.50
2023-07-08T04:19:24.481Z,13.15
2023-07-08T04:21:52.439Z,14.50
2023-07-08T04:24:20.696Z,11.98
2023-07-08T04:26:50.351Z,13.70
2023-07-08T04:29:23.328Z,15.00
2023-07-08T04:31:54.367Z,10.82
2023-07-08T04:34:22.812Z,12.93
2023-07-08T04:36:51.041Z,11.98
2023-07-08T04:39:19.560Z,12.07
2023-07-08T04:41:47.621Z,10.88
2023-07-08T04:44:16.092Z,12.77
2023-07-08T04:49:33.078Z,11.68
2023-07-08T04:52:01.164Z,9.38
2023-07-08T04:54:30.374Z,12.07
2023-07-08T04:56:58.396Z,11.05
2023-07-08T04:59:27.138Z,12.35
2023-07-08T05:01:55.314Z,15.85
2023-07-08T05:04:24.018Z,11.50
2023-07-08T05:06:52.177Z,11.07
2023-07-08T05:09:20.164Z,10.65
2023-07-08T05:11:48.212Z,9.88
2023-07-08T05:14:16.241Z,13.77
2023-07-08T05:16:44.379Z,10.48
2023-07-08T05:19:12.512Z,10.75
2023-07-08T05:21:40.965Z,12.80
2023-07-08T05:24:09.616Z,11.13
2023-07-08T05:26:37.680Z,11.25
2023-07-08T05:29:06.690Z,10.57
2023-07-08T05:34:06.289Z,15.02
2023-07-08T05:36:34.322Z,11.70
2023-07-08T05:39:02.441Z,13.38
2023-07-08T05:41:30.607Z,10.45
2023-07-08T05:43:58.592Z,10.93
2023-07-08T05:46:26.680Z,11.65
2023-07-08T05:48:55.398Z,9.63
2023-07-08T05:51:23.543Z,18.92
2023-07-08T05:53:51.624Z,11.27
2023-07-08T05:56:19.966Z,11.02
2023-07-08T05:58:48.305Z,9.48
2023-07-08T06:01:16.578Z,14.90
2023-07-08T06:06:13.330Z,8.73
2023-07-08T06:08:42.680Z,8.25
2023-07-08T06:11:10.733Z,10.88
2023-07-08T06:13:38.795Z,9.40
2023-07-08T06:16:06.917Z,9.13
2023-07-08T06:18:35.459Z,9.18
2023-07-08T06:21:04.548Z,8.45
2023-07-08T06:23:32.675Z,9.32
2023-07-08T06:26:00.784Z,8.95
2023-07-08T06:28:28.884Z,8.27
2023-07-08T06:30:56.966Z,9.48
2023-07-08T06:33:25.043Z,8.32
2023-07-08T06:35:53.046Z,8.35
2023-07-08T06:38:21.164Z,7.78
2023-07-08T06:40:49.308Z,8.43
2023-07-08T06:45:51.057Z,7.38
2023-07-08T06:50:50.129Z,8.25
2023-07-08T06:53:18.541Z,9.85
2023-07-08T06:55:47.275Z,7.88
2023-07-08T06:58:15.698Z,6.60
2023-07-08T07:00:47.434Z,8.70
2023-07-08T07:03:16.073Z,7.38
2023-07-08T07:05:45.638Z,8.15
2023-07-08T07:08:13.899Z,9.65
2023-07-08T07:10:42.094Z,10.40
2023-07-08T07:15:38.971Z,9.73
2023-07-08T07:18:07.713Z,9.07
2023-07-08T07:20:39.524Z,11.75
2023-07-08T07:23:07.868Z,9.73
2023-07-08T07:25:36.681Z,21.88
2023-07-08T07:28:06.470Z,11.13
2023-07-08T07:30:35.462Z,8.82
2023-07-08T07:33:04.424Z,9.60
2023-07-08T07:35:33.096Z,11.40
2023-07-08T07:38:01.321Z,12.85
2023-07-08T07:40:29.352Z,9.48
2023-07-08T07:42:57.419Z,10.18
2023-07-08T07:45:25.391Z,8.85
2023-07-08T07:47:53.424Z,9.05
2023-07-08T07:50:21.542Z,9.13
2023-07-08T07:52:49.638Z,9.65
2023-07-08T07:55:17.726Z,8.98
2023-07-08T07:57:47.173Z,10.25
2023-07-08T08:00:15.857Z,8.80
2023-07-08T08:02:46.413Z,8.57
2023-07-08T08:05:14.581Z,8.68
2023-07-08T08:07:42.631Z,11.52
2023-07-08T08:10:11.014Z,9.15
2023-07-08T08:12:52.249Z,9.75
2023-07-08T08:15:23.907Z,13.27
2023-07-08T08:17:53.813Z,11.65
2023-07-08T08:20:25.266Z,7.88
2023-07-08T08:22:53.953Z,11.90
2023-07-08T08:25:24.724Z,10.68
2023-07-08T08:27:53.822Z,7.93
2023-07-08T08:30:21.892Z,8.32
2023-07-08T08:32:50.136Z,9.00
2023-07-08T08:35:18.303Z,9.73
2023-07-08T08:37:46.386Z,9.43
2023-07-08T08:40:20.627Z,12.48
2023-07-08T08:43:03.713Z,11.27
2023-07-08T08:45:49.005Z,10.88
2023-07-08T08:48:21.251Z,9.52
2023-07-08T08:50:57.839Z,9.95
2023-07-08T08:53:28.386Z,10.73
2023-07-08T08:56:04.940Z,8.63
2023-07-08T08:58:45.505Z,8.57
2023-07-08T09:01:17.831Z,8.43
2023-07-08T09:04:00.863Z,12.88
2023-07-08T09:06:35.609Z,10.05
2023-07-08T09:09:20.160Z,10.15
2023-07-08T09:12:03.018Z,8.80
2023-07-08T09:14:35.054Z,10.48
2023-07-08T09:17:17.432Z,11.23
2023-07-08T09:20:07.266Z,9.00
2023-07-08T09:22:45.581Z,11.23
2023-07-08T09:25:17.290Z,9.82
2023-07-08T09:27:47.914Z,8.25
2023-07-08T09:30:20.178Z,11.93
2023-07-08T09:32:49.868Z,8.93
2023-07-08T09:35:25.487Z,9.82
2023-07-08T09:37:54.471Z,8.40
2023-07-08T09:40:34.343Z,10.38
2023-07-08T09:43:18.706Z,10.27
2023-07-08T09:45:49.074Z,8.68
2023-07-08T09:48:22.192Z,8.10
2023-07-08T09:50:53.845Z,9.25
2023-07-08T09:53:22.196Z,8.68
2023-07-08T09:55:52.345Z,11.13
2023-07-08T09:58:27.308Z,8.73
2023-07-08T10:00:59.834Z,8.30
2023-07-08T10:03:35.400Z,10.25
2023-07-08T10:06:07.447Z,11.27
2023-07-08T10:08:44.433Z,8.52
2023-07-08T10:11:37.422Z,8.07
2023-07-08T10:14:15.456Z,7.85
2023-07-08T10:16:45.219Z,7.70
2023-07-08T10:19:17.691Z,8.30
2023-07-08T10:22:05.639Z,9.45
2023-07-08T10:25:05.492Z,7.50
2023-07-08T10:27:56.235Z,9.23
2023-07-08T10:30:30.082Z,9.48
2023-07-08T10:33:20.289Z,7.25
2023-07-08T10:36:07.533Z,7.07
2023-07-08T10:39:03.658Z,9.35
2023-07-08T10:41:46.774Z,8.23
2023-07-08T10:44:35.166Z,7.40
2023-07-08T10:47:35.144Z,8.10
2023-07-08T10:50:10.226Z,7.82
2023-07-08T10:53:03.209Z,8.60
2023-07-08T10:55:53.157Z,7.00
2023-07-08T10:58:52.055Z,6.70
2023-07-08T11:01:41.293Z,7.82
2023-07-08T11:04:15.732Z,9.20
2023-07-08T11:06:57.015Z,6.82
2023-07-08T11:09:50.544Z,8.93
2023-07-08T11:12:37.892Z,9.07
2023-07-08T11:15:21.506Z,9.75
2023-07-08T11:17:53.271Z,7.93
2023-07-08T11:20:58.848Z,6.85
2023-07-08T11:23:33.906Z,10.52
2023-07-08T11:26:31.922Z,6.63
2023-07-08T11:29:04.427Z,9.45
2023-07-08T11:31:35.415Z,20.70
2023-07-08T11:34:05.001Z,6.72
2023-07-08T11:36:35.671Z,7.50
2023-07-08T11:39:04.337Z,7.20
2023-07-08T11:41:33.867Z,6.65
2023-07-08T11:44:07.490Z,7.20
2023-07-08T11:46:36.264Z,11.10
2023-07-08T11:49:13.394Z,8.55
2023-07-08T11:51:46.193Z,9.52
2023-07-08T11:54:16.483Z,6.70
2023-07-08T11:56:56.672Z,8.07
2023-07-08T11:59:32.097Z,6.47
2023-07-08T12:02:15.615Z,7.35
2023-07-08T12:05:12.833Z,6.28
2023-07-08T12:07:44.793Z,8.57
2023-07-08T12:10:19.234Z,8.57
2023-07-08T12:15:24.368Z,8.15
2023-07-08T12:17:54.943Z,7.72
2023-07-08T12:20:27.411Z,6.80
2023-07-08T12:22:55.697Z,8.70
2023-07-08T12:27:55.277Z,7.43
2023-07-08T12:30:23.289Z,6.80
2023-07-08T12:32:52.590Z,7.97
2023-07-08T12:35:26.953Z,9.98
2023-07-08T12:37:59.558Z,11.18
2023-07-08T12:40:30.774Z,6.10
2023-07-08T12:43:03.050Z,7.70
2023-07-08T12:45:32.512Z,8.02
2023-07-08T12:48:00.503Z,8.07
2023-07-08T12:50:28.504Z,9.13
2023-07-08T12:52:57.834Z,6.93
2023-07-08T12:55:26.776Z,9.38
2023-07-08T12:57:56.376Z,6.15
2023-07-08T13:00:33.326Z,6.47
2023-07-08T13:03:08.695Z,5.97
2023-07-08T13:05:36.941Z,11.45
2023-07-08T13:08:05.972Z,5.90
2023-07-08T13:10:36.271Z,6.93
2023-07-08T13:13:08.351Z,6.93
2023-07-08T13:15:43.765Z,8.63
2023-07-08T13:18:18.826Z,7.03
2023-07-08T13:20:53.589Z,5.95
2023-07-08T13:23:23.468Z,6.22
2023-07-08T13:25:53.423Z,6.28
2023-07-08T13:28:29.654Z,6.63
2023-07-08T13:31:04.018Z,6.93
2023-07-08T13:33:34.611Z,7.07
2023-07-08T13:36:05.318Z,5.90
2023-07-08T13:38:36.471Z,7.10
2023-07-08T13:41:10.170Z,13.02
2023-07-08T13:43:41.178Z,5.85
2023-07-08T13:46:37.565Z,6.90
2023-07-08T13:49:22.642Z,6.22
2023-07-08T13:52:09.588Z,7.28
2023-07-08T13:54:42.686Z,6.10
2023-07-08T13:57:13.683Z,7.90
2023-07-08T13:59:41.705Z,7.47
2023-07-08T14:02:24.939Z,8.45
2023-07-08T14:04:54.858Z,7.18
2023-07-08T14:07:30.116Z,8.70
2023-07-08T14:09:59.139Z,6.05
2023-07-08T14:12:27.810Z,6.25
2023-07-08T14:14:56.263Z,9.05
2023-07-08T14:19:55.156Z,6.43
2023-07-08T14:22:29.778Z,5.30
2023-07-08T14:25:05.999Z,7.22
2023-07-08T14:27:34.754Z,9.07
2023-07-08T14:30:04.105Z,7.13
2023-07-08T14:32:34.452Z,9.27
2023-07-08T14:35:28.149Z,5.72
2023-07-08T14:37:57.427Z,6.60
2023-07-08T14:40:28.589Z,7.80
2023-07-08T14:43:07.502Z,6.88
2023-07-08T14:45:48.810Z,6.32
2023-07-08T14:48:17.972Z,9.77
2023-07-08T14:50:46.946Z,7.10
2023-07-08T14:53:17.108Z,7.03
2023-07-08T14:55:49.506Z,15.95
2023-07-08T14:58:26.230Z,6.35
2023-07-08T15:00:58.092Z,6.28
2023-07-08T15:03:28.462Z,12.25
2023-07-08T15:05:57.243Z,9.25
2023-07-08T15:08:25.872Z,9.70
2023-07-08T15:10:54.876Z,9.80
2023-07-08T15:13:30.471Z,7.82
2023-07-08T15:15:59.175Z,8.00
2023-07-08T15:18:27.824Z,7.55
2023-07-08T15:20:56.796Z,5.90
2023-07-08T15:23:26.318Z,10.68
2023-07-08T15:25:55.828Z,5.63
2023-07-08T15:28:49.230Z,8.15
2023-07-08T15:31:26.284Z,11.48
2023-07-08T15:33:55.091Z,6.15
2023-07-08T15:36:23.833Z,8.13
2023-07-08T15:38:53.515Z,6.30
2023-07-08T15:41:28.312Z,6.70
2023-07-08T15:43:58.269Z,7.13
2023-07-08T15:46:34.473Z,6.25
2023-07-08T15:49:17.568Z,6.18
2023-07-08T15:51:49.355Z,6.28
2023-07-08T15:54:20.806Z,5.35
2023-07-08T15:56:52.993Z,6.75
2023-07-08T15:59:26.790Z,6.55
2023-07-08T16:01:55.845Z,7.15
2023-07-08T16:04:33.398Z,9.50
2023-07-08T16:07:02.507Z,7.20
2023-07-08T16:09:30.740Z,5.60
2023-07-08T16:11:58.802Z,5.88
2023-07-08T16:14:27.558Z,5.50
2023-07-08T16:16:56.574Z,6.85
2023-07-08T16:19:24.909Z,5.70
2023-07-08T16:21:52.944Z,7.75
2023-07-08T16:24:21.858Z,7.00
2023-07-08T16:26:50.154Z,6.97
2023-07-08T16:31:47.563Z,5.22
2023-07-08T16:34:15.966Z,5.47
2023-07-08T16:36:44.168Z,6.78
2023-07-08T16:39:12.947Z,6.43
2023-07-08T16:41:41.102Z,7.88
2023-07-08T16:44:16.234Z,5.88
2023-07-08T16:46:45.230Z,6.50
2023-07-08T16:49:13.765Z,9.02
2023-07-08T16:51:42.785Z,6.50
2023-07-08T16:54:10.833Z,6.70
2023-07-08T16:56:41.041Z,5.55
2023-07-08T16:59:10.550Z,5.78
2023-07-08T17:01:39.410Z,7.40
2023-07-08T17:04:13.138Z,7.47
2023-07-08T17:06:42.667Z,8.60
2023-07-08T17:15:11.568Z,6.30
2023-07-08T17:17:48.286Z,6.80
2023-07-08T17:20:41.514Z,5.82
2023-07-08T17:23:14.666Z,10.55
2023-07-08T17:25:43.648Z,10.52
2023-07-08T17:28:12.704Z,8.23
2023-07-08T17:30:47.136Z,8.18
2023-07-08T17:35:47.557Z,8.80
2023-07-08T17:38:23.755Z,5.78
2023-07-08T17:40:53.545Z,7.32
2023-07-08T17:43:23.833Z,6.15
2023-07-08T17:45:54.159Z,7.95
2023-07-08T17:48:26.915Z,7.30
2023-07-08T17:50:55.747Z,6.13
2023-07-08T17:53:24.665Z,9.02
2023-07-08T17:55:54.164Z,5.65
2023-07-08T17:58:22.954Z,6.30
2023-07-08T18:00:52.122Z,8.20
2023-07-08T18:03:20.757Z,8.82
2023-07-08T18:05:49.525Z,6.18
2023-07-08T18:08:18.176Z,7.00
2023-07-08T18:10:46.655Z,6.13
2023-07-08T18:13:23.981Z,6.43
2023-07-08T18:15:52.671Z,6.20
2023-07-08T18:18:21.629Z,6.55
2023-07-08T18:20:54.600Z,7.72
2023-07-08T18:23:25.776Z,8.02
2023-07-08T18:25:54.446Z,8.00
2023-07-08T18:28:23.059Z,7.63
2023-07-08T18:30:54.434Z,7.57
2023-07-08T18:33:23.339Z,10.13
2023-07-08T18:35:51.847Z,6.43
2023-07-08T18:38:20.491Z,6.55
2023-07-08T18:40:49.254Z,6.25
2023-07-08T18:43:21.839Z,6.72
2023-07-08T18:45:51.730Z,7.10
2023-07-08T18:48:22.643Z,8.40
2023-07-08T18:50:56.560Z,6.40
2023-07-08T18:53:25.977Z,7.32
2023-07-08T18:55:55.084Z,8.10
2023-07-08T18:58:23.777Z,5.47
2023-07-08T19:00:53.968Z,7.55
2023-07-08T19:03:25.838Z,6.18
2023-07-08T19:05:55.305Z,6.82
2023-07-08T19:08:24.533Z,5.97
2023-07-08T19:10:56.369Z,5.90
2023-07-08T19:13:28.413Z,6.53
2023-07-08T19:15:57.043Z,7.60
2023-07-08T19:18:25.556Z,6.10
2023-07-08T19:20:54.270Z,7.05
2023-07-08T19:23:27.857Z,6.38
2023-07-08T19:25:57.357Z,7.47
2023-07-08T19:28:26.004Z,8.30
2023-07-08T19:30:57.801Z,7.00
2023-07-08T19:33:26.584Z,6.45
2023-07-08T19:35:57.386Z,6.28
2023-07-08T19:38:26.138Z,6.35
2023-07-08T19:40:54.929Z,7.18
2023-07-08T19:43:23.994Z,6.97
2023-07-08T19:45:52.932Z,5.25
2023-07-08T19:48:21.640Z,7.78
2023-07-08T19:50:51.256Z,6.15
2023-07-08T19:53:19.752Z,6.97
2023-07-08T19:58:17.272Z,6.55
2023-07-08T20:00:47.796Z,5.43
2023-07-08T20:03:17.569Z,7.22
2023-07-08T20:05:46.892Z,7.93
2023-07-08T20:08:31.700Z,6.03
2023-07-08T20:11:00.433Z,5.28
2023-07-08T20:13:32.126Z,7.55
2023-07-08T20:16:12.986Z,8.30
2023-07-08T20:21:10.876Z,6.57
2023-07-08T20:23:40.455Z,6.20
2023-07-08T20:26:31.099Z,5.78
2023-07-08T20:29:00.591Z,6.93
2023-07-08T20:31:30.017Z,6.00
2023-07-08T20:33:59.168Z,7.18
2023-07-08T20:36:29.348Z,6.15
2023-07-08T20:38:58.098Z,7.60
2023-07-08T20:41:26.958Z,5.65
2023-07-08T20:43:58.115Z,5.30
2023-07-08T20:46:28.863Z,6.47
2023-07-08T20:48:59.754Z,6.28
2023-07-08T20:51:28.660Z,8.27
2023-07-08T20:53:57.140Z,6.45
2023-07-08T20:56:30.962Z,5.40
2023-07-08T20:59:01.656Z,5.75
2023-07-08T21:01:33.400Z,5.35
2023-07-08T21:04:02.477Z,7.68
2023-07-08T21:06:33.575Z,6.53
2023-07-08T21:09:03.608Z,6.68
2023-07-08T21:11:32.207Z,7.47
2023-07-08T21:16:31.332Z,5.20
2023-07-08T21:19:00.303Z,6.05
2023-07-08T21:21:28.740Z,6.75
2023-07-08T21:23:57.064Z,7.03
2023-07-08T21:26:28.981Z,5.93
2023-07-08T21:29:00.175Z,6.00
2023-07-08T21:31:29.995Z,8.43
2023-07-08T21:33:58.314Z,7.70
2023-07-08T21:36:36.176Z,7.80
2023-07-08T21:39:32.941Z,5.57
2023-07-08T21:42:01.196Z,7.00
2023-07-08T21:44:29.510Z,6.57
2023-07-08T21:46:57.943Z,5.55
2023-07-08T21:51:53.940Z,6.70
2023-07-08T21:54:22.116Z,6.15
2023-07-08T21:56:50.113Z,5.93
2023-07-08T21:59:22.503Z,5.63
2023-07-08T22:01:51.811Z,6.55
2023-07-08T22:04:21.811Z,7.47
2023-07-08T22:06:50.190Z,8.30
2023-07-08T22:09:18.387Z,6.47
2023-07-08T22:11:46.602Z,7.13
2023-07-08T22:14:14.722Z,6.53
2023-07-08T22:16:45.586Z,7.63
2023-07-08T22:19:15.433Z,5.70
2023-07-08T22:21:43.576Z,5.95
2023-07-08T22:24:11.621Z,4.88
2023-07-08T22:26:42.023Z,5.30
2023-07-08T22:29:10.509Z,10.32
2023-07-08T22:31:42.731Z,6.22
2023-07-08T22:34:14.271Z,5.47
2023-07-08T22:36:42.866Z,7.18
2023-07-08T22:39:12.148Z,6.47
2023-07-08T22:41:53.004Z,7.15
2023-07-08T22:44:21.816Z,8.38
2023-07-08T22:46:50.550Z,8.63
2023-07-08T22:49:27.742Z,5.53
2023-07-08T22:51:58.941Z,8.23
2023-07-08T22:54:29.898Z,5.32
2023-07-08T22:56:58.306Z,7.03
2023-07-08T22:59:26.346Z,7.53
2023-07-08T23:01:54.448Z,6.25
2023-07-08T23:04:22.488Z,5.55
2023-07-08T23:06:50.594Z,6.20
2023-07-08T23:09:19.017Z,8.68
2023-07-08T23:11:47.347Z,5.50
2023-07-08T23:14:15.395Z,8.05
2023-07-08T23:16:43.422Z,7.07
2023-07-08T23:19:14.462Z,5.32
2023-07-08T23:21:42.598Z,6.15
2023-07-08T23:24:10.952Z,6.00
2023-07-08T23:26:42.356Z,8.98
2023-07-08T23:29:18.591Z,7.05
2023-07-08T23:31:47.950Z,7.28
2023-07-08T23:34:16.137Z,10.25
2023-07-08T23:36:47.738Z,9.80
2023-07-08T23:39:28.227Z,11.93
2023-07-08T23:41:57.842Z,5.90
2023-07-08T23:44:28.330Z,7.47
2023-07-08T23:46:59.606Z,7.40
2023-07-08T23:49:34.753Z,7.00
2023-07-08T23:52:03.937Z,8.82
2023-07-08T23:54:35.949Z,7.57
2023-07-08T23:57:07.145Z,6.53
2023-07-08T23:59:40.729Z,6.78
